Strona główna
METAR-TAF:

METAR-TAF

Lotnisko :

Port lotniczy Phuket

Phuket, Tajlandia

Szerokość geograficzna: 08-07N, Długość geograficzna: 098-19E, wysokość: 6 m

Aktualna obserwacja pogody

Raport powstał 28 minut temu, godzina 08:00 UTC
Wiatr 8 kt od wschodnio-południowy wschód, zmienny między wschodnio-północny wschód i południe
Temperatura 33°C
Wilgotność 49%
Ciśnienie 1011 hPa
Widzialność 10 km lub więcej
Rozproszone chmury na wysokości 2000 ft

METAR: VTSP 220800Z 11008KT 070V180 9999 SCT020 33/21 Q1011 NOSIG

czas: 15:28 (08:28 UTC)

Prognoza

Raport powstał 3 godziny i 28 minut temu, godzina 05:00 UTC
Prognoza ważna od 22 godzina 06 UTC do 23 godzina 12 UTC
Wiatr 15 kt od wschód
Widzialność 10 km lub więcej
Mało chmury na wysokości 2000 ft

TAF: VTSP 220500Z 2206/2312 09015KT 9999 FEW020

Obserwacja i prognoza pogody dla ponad 4000 lotnisk (raport METAR i TAF).

Dostępne stacje oznaczono żółtymi i czerwonymi punktami na mapie.

Najedź kursorem aby zobaczyć nazwę stacji.

Kliknij aby zobaczyć obserwacje i prognozy pogody.

Aby zmienić mapę: kliknij na zielony przycisk z czarnym krzyżykiem, aby powiększyć; na zielony przycisk z myślnikiem, aby pomniejszyć; na zielone strzałki, aby przejść do map sąsiednich.


METAR-TAF: